Terminal Aerodrome Forecast
Issued by NWS Sterling, VA

Home | Current Version | Previous Version | Text Only | Print | Product List | Glossary On
Versions: 1 2 3 4 5 6 7 8 9 10 11 12 13 14 15 16 17 18
000
FTUS41 KLWX 032331 AAA
TAFMRB
TAF AMD
KMRB 032331Z 0400/0424 27005KT P6SM SCT080
     FM040500 26007KT P6SM BKN070 BKN100
     FM040800 VRB03KT P6SM SCT100 BKN140
     FM041600 27007KT P6SM FEW100 SCT250=

USA.gov is the U.S. government's official web portal to all federal, state and local government web resources and services.